createdAt,value
2018-09-02T07:50:11.225Z,180.00
2018-09-02T07:51:11.495Z,185.63
2018-09-02T07:52:11.090Z,180.00
2018-09-02T07:53:11.207Z,180.00
2018-09-02T07:54:11.066Z,185.63
2018-09-02T07:55:11.042Z,185.63
2018-09-02T07:56:11.008Z,180.00
2018-09-02T07:57:11.013Z,185.63
2018-09-02T07:58:11.022Z,185.63
2018-09-02T07:59:10.960Z,185.63
2018-09-02T08:00:10.934Z,185.63
2018-09-02T08:01:10.918Z,185.63
2018-09-02T08:02:10.914Z,185.63
2018-09-02T08:03:10.904Z,185.63
2018-09-02T08:04:10.865Z,185.63
2018-09-02T08:05:10.859Z,185.63
2018-09-02T08:06:10.893Z,185.63
2018-09-02T08:07:10.822Z,185.63
2018-09-02T08:08:10.801Z,185.63
2018-09-02T08:09:10.802Z,185.63
2018-09-02T08:10:10.811Z,185.63
2018-09-02T08:11:10.739Z,185.63
2018-09-02T08:12:10.726Z,191.25
2018-09-02T08:13:10.705Z,185.63
2018-09-02T08:14:10.683Z,185.63
2018-09-02T08:15:10.686Z,185.63
2018-09-02T08:16:10.656Z,185.63
2018-09-02T08:17:10.739Z,185.63
2018-09-02T08:18:10.637Z,185.63
2018-09-02T08:19:10.628Z,185.63
2018-09-02T08:20:10.580Z,185.63
2018-09-02T08:21:10.570Z,185.63
2018-09-02T08:22:10.630Z,185.63
2018-09-02T08:23:10.529Z,185.63
2018-09-02T08:24:10.526Z,180.00
2018-09-02T08:25:10.500Z,180.00
2018-09-02T08:26:10.487Z,185.63
2018-09-02T08:27:10.462Z,185.63
2018-09-02T08:28:10.444Z,185.63
2018-09-02T08:29:10.428Z,185.63
2018-09-02T08:30:10.418Z,185.63
2018-09-02T08:31:10.434Z,185.63
2018-09-02T08:32:10.418Z,185.63
2018-09-02T08:33:10.482Z,185.63
2018-09-02T08:34:10.362Z,185.63
2018-09-02T08:35:10.324Z,185.63
2018-09-02T08:36:10.313Z,185.63
2018-09-02T08:37:10.305Z,185.63
2018-09-02T08:38:10.274Z,185.63
2018-09-02T08:39:10.277Z,185.63
2018-09-02T08:40:10.245Z,185.63
2018-09-02T08:41:10.224Z,185.63
2018-09-02T08:42:10.238Z,185.63
2018-09-02T08:43:10.195Z,185.63
2018-09-02T08:44:10.247Z,185.63
2018-09-02T08:45:10.178Z,185.63
2018-09-02T08:46:10.164Z,185.63
2018-09-02T08:47:10.147Z,185.63
2018-09-02T08:48:10.110Z,185.63
2018-09-02T08:49:10.132Z,185.63
2018-09-02T08:50:10.080Z,185.63
2018-09-02T08:51:10.066Z,185.63
2018-09-02T08:52:10.061Z,185.63
2018-09-02T08:53:10.067Z,185.63
2018-09-02T08:54:10.045Z,191.25
2018-09-02T08:55:10.028Z,191.25
2018-09-02T08:56:10.034Z,191.25
2018-09-02T08:57:09.979Z,185.63
2018-09-02T08:58:09.965Z,191.25
2018-09-02T08:59:09.962Z,191.25
2018-09-02T09:00:09.920Z,191.25
2018-09-02T09:01:09.908Z,191.25
2018-09-02T09:02:09.897Z,185.63
2018-09-02T09:03:09.863Z,185.63
2018-09-02T09:04:09.854Z,185.63
2018-09-02T09:05:09.837Z,185.63
2018-09-02T09:06:09.816Z,185.63
2018-09-02T09:07:09.825Z,185.63
2018-09-02T09:08:09.858Z,185.63
2018-09-02T09:09:09.882Z,185.63
2018-09-02T09:10:09.759Z,185.63
2018-09-02T09:11:09.764Z,185.63
2018-09-02T09:12:09.739Z,185.63
2018-09-02T09:13:09.701Z,185.63
2018-09-02T09:14:09.774Z,185.63
2018-09-02T09:15:09.667Z,185.63
2018-09-02T09:16:09.682Z,185.63
2018-09-02T09:17:09.748Z,191.25
2018-09-02T09:18:09.631Z,180.00
2018-09-02T09:19:09.605Z,180.00
2018-09-02T09:20:09.654Z,185.63
2018-09-02T09:21:09.573Z,180.00
2018-09-02T09:22:09.647Z,180.00
2018-09-02T09:23:09.542Z,180.00
2018-09-02T09:24:09.627Z,180.00
2018-09-02T09:25:09.581Z,180.00
2018-09-02T09:26:09.509Z,180.00
2018-09-02T09:27:09.482Z,180.00
2018-09-02T09:29:30.893Z,180.00
2018-09-02T09:30:30.532Z,180.00
2018-09-02T09:35:08.266Z,180.00
2018-09-02T09:35:35.681Z,180.00
2018-09-02T09:37:30.077Z,180.00
2018-09-02T09:38:30.039Z,180.00
2018-09-02T09:39:30.014Z,180.00
2018-09-02T09:40:30.030Z,180.00
2018-09-02T09:41:29.992Z,180.00
2018-09-02T09:42:29.971Z,180.00
2018-09-02T09:43:29.941Z,180.00
2018-09-02T09:44:29.932Z,180.00
2018-09-02T09:45:29.916Z,180.00
2018-09-02T09:46:29.899Z,180.00
2018-09-02T09:47:29.886Z,180.00
2018-09-02T09:48:29.867Z,180.00
2018-09-02T09:49:29.994Z,180.00
2018-09-02T09:50:29.850Z,180.00
2018-09-02T09:51:29.822Z,180.00
2018-09-02T09:52:29.808Z,180.00
2018-09-02T09:53:29.864Z,180.00
2018-09-02T09:54:29.789Z,185.63
2018-09-02T09:55:29.837Z,185.63
2018-09-02T09:56:29.759Z,180.00
2018-09-02T09:57:29.725Z,180.00
2018-09-02T09:58:29.710Z,180.00
2018-09-02T09:59:29.702Z,180.00
2018-09-02T10:00:29.680Z,185.63
2018-09-02T10:01:29.720Z,185.63
2018-09-02T10:02:29.655Z,185.63
2018-09-02T10:03:29.695Z,185.63
2018-09-02T10:04:29.688Z,185.63
2018-09-02T10:05:29.651Z,185.63
2018-09-02T10:06:29.608Z,196.88
2018-09-02T10:07:29.587Z,191.25
2018-09-02T10:08:29.566Z,191.25
2018-09-02T10:09:29.541Z,191.25
2018-09-02T10:10:29.675Z,191.25
2018-09-02T10:11:29.526Z,191.25
2018-09-02T10:12:29.608Z,191.25
2018-09-02T10:13:29.508Z,191.25
2018-09-02T10:14:29.475Z,191.25
2018-09-02T10:15:29.479Z,191.25
2018-09-02T10:16:29.448Z,191.25
2018-09-02T10:17:29.422Z,196.88
2018-09-02T10:18:29.424Z,191.25
2018-09-02T10:19:29.395Z,191.25
2018-09-02T10:20:29.389Z,191.25
2018-09-02T10:21:29.387Z,191.25
2018-09-02T10:22:29.371Z,191.25
2018-09-02T10:23:29.342Z,191.25
2018-09-02T10:24:29.315Z,191.25
2018-09-02T10:25:29.322Z,191.25
2018-09-02T10:26:29.285Z,191.25
2018-09-02T10:27:29.324Z,191.25
2018-09-02T10:28:29.255Z,191.25
2018-09-02T10:29:29.249Z,191.25
2018-09-02T10:30:29.253Z,191.25
2018-09-02T10:31:29.212Z,191.25
2018-09-02T10:32:29.199Z,191.25
2018-09-02T10:33:29.253Z,191.25
2018-09-02T10:34:29.166Z,191.25
2018-09-02T10:35:29.156Z,191.25
2018-09-02T10:36:29.160Z,191.25
2018-09-02T10:37:29.148Z,191.25
2018-09-02T10:38:29.108Z,191.25
2018-09-02T10:39:29.103Z,191.25
2018-09-02T10:40:29.100Z,191.25
2018-09-02T10:41:29.128Z,191.25
2018-09-02T10:42:29.057Z,191.25
2018-09-02T10:43:29.060Z,191.25
2018-09-02T10:44:29.043Z,191.25
2018-09-02T10:45:29.005Z,191.25
2018-09-02T10:46:29.024Z,191.25
2018-09-02T10:47:28.977Z,191.25
2018-09-02T10:48:28.965Z,191.25
2018-09-02T10:49:28.949Z,191.25
2018-09-02T10:50:28.932Z,191.25
2018-09-02T10:51:28.948Z,191.25
2018-09-02T10:52:28.923Z,191.25
2018-09-02T10:53:28.924Z,191.25
2018-09-02T10:54:28.871Z,191.25
2018-09-02T10:55:28.869Z,191.25
2018-09-02T10:56:28.845Z,196.88
2018-09-02T10:57:28.835Z,191.25
2018-09-02T10:58:28.812Z,191.25
2018-09-02T10:59:28.873Z,191.25
2018-09-02T11:00:28.801Z,191.25
2018-09-02T11:01:28.777Z,191.25
2018-09-02T11:02:28.768Z,191.25
2018-09-02T11:03:28.746Z,191.25
2018-09-02T11:04:28.727Z,191.25
2018-09-02T11:05:28.721Z,191.25
2018-09-02T11:06:28.699Z,191.25
2018-09-02T11:07:28.684Z,191.25
2018-09-02T11:08:28.669Z,191.25
2018-09-02T11:09:28.659Z,191.25
2018-09-02T11:10:28.655Z,191.25
2018-09-02T11:11:28.666Z,191.25
2018-09-02T11:12:28.635Z,191.25
2018-09-02T11:13:28.620Z,191.25
2018-09-02T11:14:28.586Z,191.25
2018-09-02T11:15:28.577Z,191.25
2018-09-02T11:16:28.583Z,191.25
2018-09-02T11:17:28.540Z,191.25
2018-09-02T11:18:28.529Z,191.25
2018-09-02T11:19:28.534Z,191.25
2018-09-02T11:20:28.514Z,191.25
2018-09-02T11:21:28.483Z,191.25
2018-09-02T11:22:28.471Z,196.88
2018-09-02T11:23:28.472Z,191.25
2018-09-02T11:24:28.441Z,191.25
2018-09-02T11:25:28.424Z,196.88
2018-09-02T11:26:28.409Z,196.88
2018-09-02T11:27:28.434Z,196.88
2018-09-02T11:28:28.403Z,196.88
2018-09-02T11:29:28.369Z,196.88
2018-09-02T11:30:28.354Z,196.88
2018-09-02T11:31:28.363Z,196.88
2018-09-02T11:32:28.325Z,196.88
2018-09-02T11:33:28.325Z,196.88
2018-09-02T11:34:28.324Z,196.88
2018-09-02T11:35:28.286Z,196.88
2018-09-02T11:36:28.304Z,196.88
2018-09-02T11:37:28.256Z,196.88
2018-09-02T11:38:28.247Z,196.88
2018-09-02T11:39:28.233Z,196.88
2018-09-02T11:40:28.214Z,196.88
2018-09-02T11:41:28.201Z,196.88
2018-09-02T11:42:28.187Z,196.88
2018-09-02T11:43:28.171Z,202.50
2018-09-02T11:44:28.169Z,202.50
2018-09-02T11:45:28.150Z,202.50
2018-09-02T11:46:28.127Z,202.50
2018-09-02T11:47:28.123Z,202.50
2018-09-02T11:48:28.127Z,202.50
2018-09-02T11:49:28.090Z,202.50
2018-09-02T11:50:28.106Z,208.13
2018-09-02T11:51:28.059Z,202.50
2018-09-02T11:52:28.058Z,202.50
2018-09-02T11:53:28.028Z,202.50
2018-09-02T11:54:28.064Z,196.88
2018-09-02T11:55:28.016Z,196.88
2018-09-02T11:56:28.006Z,202.50
2018-09-02T11:57:27.988Z,202.50
2018-09-02T11:58:27.969Z,196.88
2018-09-02T11:59:27.999Z,196.88
2018-09-02T12:00:27.971Z,196.88
2018-09-02T12:01:27.924Z,196.88
2018-09-02T12:02:27.916Z,202.50
2018-09-02T12:03:27.911Z,202.50
2018-09-02T12:04:27.932Z,202.50
2018-09-02T12:05:27.928Z,202.50
2018-09-02T12:06:27.854Z,202.50
2018-09-02T12:07:27.856Z,202.50
2018-09-02T12:08:27.821Z,202.50
2018-09-02T12:09:27.826Z,202.50
2018-09-02T12:10:27.817Z,202.50
2018-09-02T12:11:27.805Z,202.50
2018-09-02T12:12:27.769Z,202.50
2018-09-02T12:13:27.751Z,202.50
2018-09-02T12:14:27.741Z,202.50
2018-09-02T12:15:27.746Z,202.50
2018-09-02T12:16:27.717Z,202.50
2018-09-02T12:17:27.751Z,202.50
2018-09-02T12:18:27.712Z,208.13
2018-09-02T12:19:27.683Z,208.13
2018-09-02T12:20:27.675Z,208.13
2018-09-02T12:21:27.644Z,208.13
2018-09-02T12:22:27.631Z,213.75
2018-09-02T12:23:27.652Z,208.13
2018-09-02T12:24:27.604Z,208.13
2018-09-02T12:25:27.595Z,213.75
2018-09-02T12:26:27.598Z,208.13
2018-09-02T12:27:27.585Z,213.75
2018-09-02T12:28:27.551Z,208.13
2018-09-02T12:29:27.541Z,208.13
2018-09-02T12:30:27.522Z,208.13
2018-09-02T12:31:27.583Z,213.75
2018-09-02T12:32:27.512Z,208.13
2018-09-02T12:33:27.499Z,208.13
2018-09-02T12:34:27.469Z,208.13
2018-09-02T12:35:27.476Z,213.75
2018-09-02T12:36:27.450Z,213.75
2018-09-02T12:37:27.471Z,219.38
2018-09-02T12:38:27.451Z,219.38
2018-09-02T12:42:33.589Z,219.38
2018-09-02T12:43:33.575Z,219.38
2018-09-02T12:44:33.671Z,219.38
2018-09-02T12:45:33.547Z,225.00
2018-09-02T12:46:33.561Z,225.00
2018-09-02T12:47:33.577Z,225.00
2018-09-02T12:48:33.566Z,225.00
2018-09-02T12:49:33.507Z,219.38
2018-09-02T12:50:33.498Z,219.38
2018-09-02T12:51:34.138Z,225.00
2018-09-02T12:52:33.456Z,225.00
2018-09-02T12:53:33.479Z,230.63
2018-09-02T12:54:33.444Z,236.25
2018-09-02T12:55:33.412Z,241.88
2018-09-02T12:56:33.404Z,241.88
2018-09-02T12:57:33.391Z,236.25
2018-09-02T12:58:33.386Z,241.88
2018-09-02T12:59:33.376Z,241.88
2018-09-02T13:00:33.353Z,247.50
2018-09-02T13:01:33.344Z,253.13
2018-09-02T13:02:33.329Z,247.50
2018-09-02T13:03:33.364Z,253.13
2018-09-02T13:04:33.297Z,258.75
2018-09-02T13:05:33.287Z,270.00
2018-09-02T13:06:33.280Z,286.88
2018-09-02T13:07:33.263Z,315.00
2018-09-02T13:08:33.256Z,556.88
2018-09-02T13:09:33.331Z,1040.63
2018-09-02T13:10:33.247Z,1226.25
2018-09-02T13:11:33.247Z,1276.88
2018-09-02T13:12:33.232Z,1282.50
2018-09-02T13:13:33.204Z,1147.50
2018-09-02T13:14:33.176Z,1265.63
2018-09-02T13:15:33.180Z,270.00
2018-09-02T13:16:33.152Z,1383.75
2018-09-02T13:17:33.145Z,1366.88
2018-09-02T13:18:33.134Z,697.50
2018-09-02T13:19:33.144Z,1518.75
2018-09-02T13:20:33.120Z,1575.00
2018-09-02T13:21:33.108Z,1569.38
2018-09-02T13:22:33.082Z,1513.13
2018-09-02T13:23:33.089Z,1462.50
2018-09-02T13:24:33.108Z,1473.75
2018-09-02T13:25:33.055Z,1496.25
2018-09-02T13:26:33.058Z,1501.88
2018-09-02T13:27:33.058Z,1535.63
2018-09-02T13:28:33.045Z,1625.63
2018-09-02T13:29:33.013Z,1659.38
2018-09-02T13:30:33.019Z,1698.75
2018-09-02T13:31:33.001Z,1665.00
2018-09-02T13:32:33.052Z,1631.25
2018-09-02T13:33:33.041Z,1608.75
2018-09-02T13:34:32.967Z,1591.88
2018-09-02T13:35:32.984Z,1653.75
2018-09-02T13:36:32.957Z,1743.75
2018-09-02T13:37:32.971Z,1726.88
2018-09-02T13:38:32.955Z,1681.88
2018-09-02T13:39:32.952Z,1620.00
2018-09-02T13:40:32.935Z,1485.00
2018-09-02T13:41:32.932Z,1428.75
2018-09-02T13:42:32.946Z,1378.13
2018-09-02T13:43:32.903Z,1350.00
2018-09-02T13:44:32.887Z,1366.88
2018-09-02T13:45:32.919Z,1372.50
2018-09-02T13:46:32.879Z,1355.63
2018-09-02T13:47:32.882Z,1338.75
2018-09-02T13:48:32.941Z,1417.50
2018-09-02T13:49:32.889Z,1406.25
2018-09-02T13:50:32.850Z,1355.63
2018-09-02T13:51:32.885Z,1355.63
2018-09-02T13:52:32.833Z,1372.50
2018-09-02T13:53:32.861Z,1378.13
2018-09-02T13:54:32.845Z,1350.00
2018-09-02T13:55:32.815Z,770.63
2018-09-02T13:56:32.809Z,1327.50
2018-09-02T13:57:32.809Z,984.38
2018-09-02T13:58:32.808Z,663.75
2018-09-02T13:59:32.877Z,607.50
2018-09-02T14:00:32.791Z,416.25
2018-09-02T14:01:32.773Z,348.75
2018-09-02T14:02:32.781Z,275.63
2018-09-02T14:03:32.763Z,360.00
2018-09-02T14:04:32.766Z,399.38
2018-09-02T14:05:32.777Z,382.50
2018-09-02T14:06:32.736Z,410.63
2018-09-02T14:07:32.748Z,523.13
2018-09-02T14:08:32.733Z,607.50
2018-09-02T14:09:32.738Z,489.38
2018-09-02T14:10:32.695Z,264.38
2018-09-02T14:11:32.694Z,303.75
2018-09-02T14:12:32.711Z,315.00
2018-09-02T14:13:32.696Z,337.50
2018-09-02T14:14:32.674Z,315.00
2018-09-02T14:15:32.661Z,320.63
2018-09-02T14:16:32.680Z,281.25
2018-09-02T14:17:32.637Z,320.63
2018-09-02T14:18:32.681Z,517.50
2018-09-02T14:19:32.690Z,337.50
2018-09-02T14:20:32.643Z,534.38
2018-09-02T14:21:32.595Z,292.50
2018-09-02T14:22:32.618Z,270.00
2018-09-02T14:23:32.582Z,258.75
2018-09-02T14:24:32.594Z,264.38
2018-09-02T14:25:32.593Z,286.88
2018-09-02T14:26:32.569Z,315.00
2018-09-02T14:27:32.572Z,416.25
2018-09-02T14:28:32.657Z,331.88
2018-09-02T14:29:32.527Z,315.00
2018-09-02T14:30:32.537Z,286.88
2018-09-02T14:31:32.537Z,281.25
2018-09-02T14:32:32.490Z,258.75
2018-09-02T14:33:32.481Z,241.88
2018-09-02T14:34:32.510Z,225.00
2018-09-02T14:35:32.497Z,202.50
2018-09-02T14:36:32.485Z,219.38
2018-09-02T14:37:32.461Z,219.38
2018-09-02T14:38:32.442Z,230.63
2018-09-02T14:39:32.487Z,236.25
2018-09-02T14:40:32.424Z,236.25
2018-09-02T14:41:32.509Z,247.50
2018-09-02T14:42:32.382Z,247.50
2018-09-02T14:43:32.383Z,236.25
2018-09-02T14:44:32.366Z,225.00
2018-09-02T14:45:32.351Z,225.00
2018-09-02T14:46:32.363Z,219.38
2018-09-02T14:47:32.328Z,219.38
2018-09-02T14:48:32.351Z,219.38
2018-09-02T14:49:32.303Z,202.50
2018-09-02T14:50:32.301Z,202.50
2018-09-02T14:51:32.284Z,196.88
2018-09-02T14:52:32.264Z,196.88
2018-09-02T14:53:32.266Z,202.50
2018-09-02T14:54:32.240Z,202.50
2018-09-02T14:55:32.237Z,202.50
2018-09-02T14:56:32.286Z,202.50
2018-09-02T14:57:32.208Z,303.75
2018-09-02T14:58:32.189Z,258.75
2018-09-02T14:59:32.177Z,230.63
2018-09-02T15:00:32.188Z,219.38
2018-09-02T15:01:32.180Z,208.13
2018-09-02T15:02:32.171Z,202.50
2018-09-02T15:03:32.224Z,202.50
2018-09-02T15:04:32.155Z,202.50
2018-09-02T15:05:32.121Z,208.13
2018-09-02T15:06:32.106Z,219.38
2018-09-02T15:07:32.076Z,225.00
2018-09-02T15:08:32.075Z,230.63
2018-09-02T15:09:32.089Z,320.63
2018-09-02T15:10:32.045Z,253.13
2018-09-02T15:11:32.189Z,208.13
2018-09-02T15:12:32.058Z,196.88
2018-09-02T15:13:32.045Z,191.25
2018-09-02T15:14:32.002Z,196.88
2018-09-02T15:15:31.981Z,202.50
2018-09-02T15:16:31.970Z,191.25
2018-09-02T15:17:31.968Z,191.25
2018-09-02T15:18:31.985Z,191.25
2018-09-02T15:19:31.938Z,180.00
2018-09-02T15:20:31.926Z,163.13
2018-09-02T15:21:31.928Z,157.50
2018-09-02T15:22:31.903Z,146.25
2018-09-02T15:23:31.889Z,151.88
2018-09-02T15:24:31.873Z,157.50
2018-09-02T15:25:31.861Z,163.13
2018-09-02T15:26:31.847Z,168.75
2018-09-02T15:27:31.829Z,180.00
2018-09-02T15:28:31.830Z,180.00
2018-09-02T15:29:31.822Z,174.38
2018-09-02T15:30:31.795Z,174.38
2018-09-02T15:31:31.792Z,174.38
2018-09-02T15:32:31.782Z,174.38
2018-09-02T15:33:31.764Z,174.38
2018-09-02T15:34:31.777Z,174.38
2018-09-02T15:35:31.773Z,174.38
2018-09-02T15:36:31.716Z,174.38
2018-09-02T15:37:31.788Z,174.38
2018-09-02T15:38:31.696Z,174.38
2018-09-02T15:39:31.754Z,174.38
2018-09-02T15:40:31.671Z,174.38
2018-09-02T15:41:31.648Z,168.75
2018-09-02T15:42:31.640Z,180.00
2018-09-02T15:43:31.622Z,180.00
2018-09-02T15:44:31.631Z,202.50
2018-09-02T15:45:31.595Z,191.25
2018-09-02T15:46:31.613Z,196.88
2018-09-02T15:47:31.622Z,281.25
2018-09-02T15:48:31.592Z,202.50
2018-09-02T15:49:31.589Z,202.50
2018-09-02T15:50:31.567Z,202.50
2018-09-02T15:51:31.547Z,219.38
2018-09-02T15:52:31.516Z,264.38
2018-09-02T15:53:31.585Z,213.75
2018-09-02T15:54:31.524Z,219.38
2018-09-02T15:55:31.466Z,258.75
2018-09-02T15:56:31.493Z,196.88
2018-09-02T15:57:31.463Z,191.25
2018-09-02T15:58:31.433Z,180.00
2018-09-02T15:59:31.443Z,180.00
2018-09-02T16:00:31.403Z,180.00
2018-09-02T16:01:31.405Z,174.38
2018-09-02T16:02:31.370Z,174.38
2018-09-02T16:03:31.361Z,168.75
2018-09-02T16:04:31.348Z,174.38
2018-09-02T16:05:31.372Z,168.75
2018-09-02T16:06:31.332Z,168.75
2018-09-02T16:07:31.332Z,163.13
2018-09-02T16:08:31.317Z,163.13
2018-09-02T16:09:31.286Z,157.50
2018-09-02T16:10:31.298Z,157.50
2018-09-02T16:11:31.291Z,151.88
2018-09-02T16:12:31.267Z,151.88
2018-09-02T16:13:31.274Z,151.88
2018-09-02T16:14:31.210Z,151.88
2018-09-02T16:15:31.199Z,146.25
2018-09-02T16:16:31.199Z,146.25
2018-09-02T16:17:31.220Z,146.25
2018-09-02T16:18:31.171Z,146.25
2018-09-02T16:19:31.142Z,140.63
2018-09-02T16:20:31.165Z,140.63
2018-09-02T16:21:31.117Z,140.63
2018-09-02T16:22:31.108Z,140.63
2018-09-02T16:23:31.111Z,140.63
2018-09-02T16:24:31.089Z,135.00
2018-09-02T16:25:31.086Z,135.00
2018-09-02T16:26:31.075Z,140.63
2018-09-02T16:27:31.082Z,140.63
2018-09-02T16:28:31.089Z,146.25
2018-09-02T16:29:31.056Z,151.88
2018-09-02T16:30:30.994Z,157.50
2018-09-02T16:31:31.009Z,174.38
2018-09-02T16:32:30.970Z,191.25
2018-09-02T16:33:30.954Z,213.75
2018-09-02T16:34:30.951Z,230.63
2018-09-02T16:35:30.953Z,247.50
2018-09-02T16:36:30.914Z,258.75
2018-09-02T16:37:30.905Z,270.00
2018-09-02T16:38:30.895Z,281.25
2018-09-02T16:39:30.871Z,286.88
2018-09-02T16:40:30.860Z,264.38
2018-09-02T16:41:30.941Z,247.50
2018-09-02T16:42:30.878Z,219.38
2018-09-02T16:43:30.827Z,196.88
2018-09-02T16:44:30.830Z,191.25
2018-09-02T16:45:30.821Z,185.63
2018-09-02T16:46:30.782Z,191.25
2018-09-02T16:47:30.787Z,196.88
2018-09-02T16:48:30.763Z,202.50
2018-09-02T16:49:30.736Z,219.38
2018-09-02T16:50:30.765Z,236.25
2018-09-02T16:51:30.719Z,236.25
2018-09-02T16:52:30.705Z,236.25
2018-09-02T16:53:30.715Z,225.00
2018-09-02T16:54:30.676Z,208.13
2018-09-02T16:55:30.658Z,202.50
2018-09-02T16:56:30.647Z,191.25
2018-09-02T16:57:30.641Z,185.63
2018-09-02T16:58:30.734Z,185.63
2018-09-02T16:59:30.612Z,180.00
2018-09-02T17:00:30.604Z,174.38
2018-09-02T17:01:30.645Z,168.75
2018-09-02T17:02:30.571Z,151.88
2018-09-02T17:03:30.561Z,146.25
2018-09-02T17:04:30.575Z,140.63
2018-09-02T17:05:30.532Z,129.38
2018-09-02T17:06:30.526Z,123.75
2018-09-02T17:07:30.530Z,118.13
2018-09-02T17:08:30.481Z,112.50
2018-09-02T17:09:30.540Z,106.88
2018-09-02T17:10:30.459Z,106.88
2018-09-02T17:11:30.474Z,106.88
2018-09-02T17:12:30.563Z,101.25
2018-09-02T17:13:30.460Z,95.63
2018-09-02T17:14:30.446Z,95.63
2018-09-02T17:15:30.427Z,90.00
2018-09-02T17:16:30.388Z,84.38
2018-09-02T17:17:30.365Z,78.75
2018-09-02T17:18:30.379Z,73.13
2018-09-02T17:19:30.333Z,67.50
2018-09-02T17:20:30.346Z,61.88
2018-09-02T17:21:30.324Z,61.88
2018-09-02T17:22:30.316Z,56.25
2018-09-02T17:23:30.294Z,50.63
2018-09-02T17:24:30.270Z,50.63
2018-09-02T17:25:30.272Z,45.00
2018-09-02T17:26:30.265Z,45.00
2018-09-02T17:27:30.233Z,39.38
2018-09-02T17:28:30.215Z,39.38
2018-09-02T17:29:30.262Z,39.38
2018-09-02T17:30:30.187Z,39.38
2018-09-02T17:31:30.234Z,39.38
2018-09-02T17:32:30.215Z,39.38
2018-09-02T17:33:30.175Z,39.38
2018-09-02T17:34:30.155Z,39.38
2018-09-02T17:35:30.123Z,39.38
2018-09-02T17:36:30.105Z,39.38
2018-09-02T17:37:30.101Z,39.38
2018-09-02T17:38:30.128Z,33.75
2018-09-02T17:39:30.063Z,33.75
2018-09-02T17:40:30.051Z,33.75
2018-09-02T17:41:30.030Z,28.13
2018-09-02T17:42:30.022Z,28.13
2018-09-02T17:43:30.023Z,28.13
2018-09-02T17:44:30.013Z,22.50
2018-09-02T17:45:29.984Z,22.50
2018-09-02T17:46:29.983Z,22.50
2018-09-02T17:47:29.970Z,22.50
2018-09-02T17:48:29.949Z,22.50
2018-09-02T17:49:29.995Z,22.50
2018-09-02T17:50:29.914Z,22.50
2018-09-02T17:51:29.902Z,22.50
2018-09-02T17:52:29.892Z,22.50
2018-09-02T17:53:29.871Z,22.50
2018-09-02T17:54:34.746Z,22.50
2018-09-02T17:57:02.948Z,22.50
2018-09-02T17:58:02.927Z,22.50
2018-09-02T17:59:02.922Z,22.50
2018-09-02T18:00:02.884Z,22.50
2018-09-02T18:01:03.540Z,22.50
2018-09-02T18:02:02.872Z,28.13
2018-09-02T18:03:02.876Z,28.13
2018-09-02T18:04:02.833Z,22.50
2018-09-02T18:05:02.809Z,22.50
2018-09-02T18:06:02.794Z,22.50
2018-09-02T18:07:02.779Z,16.88
2018-09-02T18:08:02.773Z,16.88
2018-09-02T18:09:02.755Z,16.88
2018-09-02T18:10:02.731Z,11.25
2018-09-02T18:11:02.728Z,11.25
2018-09-02T18:12:02.712Z,11.25
2018-09-02T18:13:02.691Z,5.63
2018-09-02T18:14:02.677Z,5.63
2018-09-02T18:15:02.668Z,5.63
2018-09-02T18:16:02.851Z,5.63
2018-09-02T18:17:02.657Z,5.63
2018-09-02T18:18:02.636Z,0.00
2018-09-02T18:19:02.605Z,0.00
2018-09-02T18:20:02.647Z,0.00
2018-09-02T18:21:02.596Z,0.00
2018-09-02T18:22:02.573Z,0.00
2018-09-02T18:23:02.571Z,0.00
2018-09-02T18:24:02.528Z,0.00
2018-09-02T18:25:02.517Z,0.00
2018-09-02T18:26:02.519Z,0.00
2018-09-02T18:27:02.492Z,0.00
2018-09-02T18:28:02.503Z,0.00
2018-09-02T18:29:02.459Z,0.00
2018-09-02T18:30:02.444Z,0.00
2018-09-02T18:31:02.442Z,0.00
2018-09-02T18:32:02.410Z,0.00
2018-09-02T18:33:02.391Z,0.00
2018-09-02T18:34:02.379Z,0.00
2018-09-02T18:35:02.368Z,0.00
2018-09-02T18:36:02.437Z,0.00
2018-09-02T18:37:02.333Z,0.00
2018-09-02T18:38:02.332Z,0.00
2018-09-02T18:39:02.412Z,0.00
2018-09-02T18:40:02.297Z,0.00
2018-09-02T18:41:02.276Z,0.00
2018-09-02T18:42:02.255Z,0.00
2018-09-02T18:43:02.240Z,0.00
2018-09-02T18:44:02.235Z,0.00
2018-09-02T18:45:02.211Z,0.00
2018-09-02T18:46:02.202Z,0.00
2018-09-02T18:47:02.181Z,0.00
2018-09-02T18:48:02.181Z,0.00
2018-09-02T18:49:02.160Z,0.00
2018-09-02T18:50:02.140Z,0.00
2018-09-02T18:51:02.149Z,0.00
2018-09-02T18:52:02.207Z,0.00
2018-09-02T18:53:02.176Z,0.00
2018-09-02T18:54:02.105Z,0.00
2018-09-02T18:55:02.106Z,0.00
2018-09-02T18:56:02.054Z,0.00
2018-09-02T18:57:02.081Z,0.00
2018-09-02T18:58:02.089Z,0.00
2018-09-02T18:59:01.993Z,0.00
2018-09-02T19:00:01.980Z,0.00
2018-09-02T19:01:01.983Z,0.00
2018-09-02T19:02:01.982Z,0.00
2018-09-02T19:03:02.006Z,0.00
2018-09-02T19:04:01.949Z,0.00
2018-09-02T19:05:01.909Z,0.00
2018-09-02T19:06:01.884Z,0.00
2018-09-02T19:07:01.885Z,0.00
2018-09-02T19:08:01.867Z,0.00
2018-09-02T19:09:01.877Z,0.00
2018-09-02T19:10:01.865Z,0.00
2018-09-02T19:11:01.805Z,0.00
2018-09-02T19:12:01.827Z,0.00
2018-09-02T19:13:01.830Z,0.00
2018-09-02T19:14:01.780Z,0.00
2018-09-02T19:15:01.757Z,0.00
2018-09-02T19:16:01.786Z,0.00
2018-09-02T19:17:01.778Z,0.00
2018-09-02T19:18:01.712Z,0.00
2018-09-02T19:19:01.728Z,0.00
2018-09-02T19:20:01.703Z,0.00
2018-09-02T19:21:01.677Z,0.00
2018-09-02T19:22:01.640Z,0.00
2018-09-02T19:23:01.649Z,0.00
2018-09-02T19:24:01.692Z,0.00
2018-09-02T19:25:01.604Z,0.00
2018-09-02T19:26:01.584Z,0.00
2018-09-02T19:27:01.554Z,0.00
2018-09-02T19:28:01.571Z,0.00
2018-09-02T19:29:01.528Z,0.00
2018-09-02T19:30:01.522Z,0.00
2018-09-02T19:31:01.498Z,0.00
2018-09-02T19:32:01.496Z,0.00
2018-09-02T19:33:01.472Z,0.00
2018-09-02T19:34:01.466Z,0.00
2018-09-02T19:35:01.466Z,0.00
2018-09-02T19:36:01.416Z,0.00
2018-09-02T19:37:01.403Z,0.00
2018-09-02T19:38:01.422Z,0.00
2018-09-02T19:39:01.367Z,0.00
2018-09-02T19:40:01.353Z,0.00
2018-09-02T19:41:01.366Z,0.00
2018-09-02T19:42:01.348Z,0.00
2018-09-02T19:43:01.301Z,0.00
2018-09-02T19:44:01.287Z,0.00
2018-09-02T19:45:01.270Z,0.00
2018-09-02T19:46:01.261Z,0.00
2018-09-02T19:47:01.306Z,0.00
2018-09-02T19:48:01.275Z,0.00
2018-09-02T19:49:01.205Z,0.00
2018-09-02T19:50:01.208Z,0.00
2018-09-02T19:51:01.187Z,0.00
2018-09-02T19:52:01.232Z,0.00
2018-09-02T19:53:01.141Z,0.00
2018-09-02T19:54:01.162Z,0.00
2018-09-02T19:55:01.168Z,0.00
2018-09-02T19:56:01.093Z,0.00
2018-09-02T19:57:01.099Z,0.00
2018-09-02T19:58:01.154Z,0.00
2018-09-02T19:59:01.062Z,0.00
2018-09-02T20:00:01.059Z,0.00
2018-09-02T20:01:01.021Z,0.00
2018-09-02T20:02:01.040Z,0.00
2018-09-02T20:03:01.008Z,0.00
2018-09-02T20:04:00.971Z,0.00
2018-09-02T20:05:00.977Z,0.00
2018-09-02T20:06:01.011Z,0.00
2018-09-02T20:07:00.927Z,0.00
2018-09-02T20:08:00.895Z,0.00
2018-09-02T20:09:00.909Z,0.00
2018-09-02T20:10:00.870Z,0.00
2018-09-02T20:11:00.856Z,0.00
2018-09-02T20:12:00.872Z,0.00
2018-09-02T20:13:00.818Z,0.00
2018-09-02T20:14:00.813Z,0.00
2018-09-02T20:15:00.788Z,0.00
2018-09-02T20:16:00.783Z,0.00
2018-09-02T20:17:00.753Z,0.00
2018-09-02T20:18:00.756Z,0.00
2018-09-02T20:19:00.769Z,0.00
2018-09-02T20:20:00.717Z,0.00
2018-09-02T20:21:00.689Z,0.00
2018-09-02T20:22:00.707Z,0.00
2018-09-02T20:23:00.655Z,0.00
2018-09-02T20:24:00.757Z,0.00
2018-09-02T20:25:00.634Z,0.00
2018-09-02T20:26:00.652Z,0.00
2018-09-02T20:27:00.595Z,0.00
2018-09-02T20:28:00.583Z,0.00
2018-09-02T20:29:00.559Z,0.00
2018-09-02T20:30:00.549Z,0.00
2018-09-02T20:31:00.564Z,0.00
2018-09-02T20:32:00.523Z,0.00
2018-09-02T20:33:00.494Z,0.00
2018-09-02T20:34:00.481Z,0.00
2018-09-02T20:35:00.464Z,0.00
2018-09-02T20:36:00.513Z,0.00
2018-09-02T20:37:00.427Z,0.00
2018-09-02T20:38:00.415Z,0.00